Aviation Digital Data Service (ADDS)

Output produced by METARs form (0008 UTC 26 June 2019)
found at http://aviationweather.gov/metar/data/
 
KTYR 252320Z 2600/2624 17005KT P6SM VCTS BKN035CB 
     FM260200 17006KT P6SM BKN100 
     TEMPO 2612/2614 BKN025 
     FM261400 23008KT P6SM OVC250